createdAt,value
2022-09-17T00:03:25.277Z,99304.73
2022-09-17T00:08:32.513Z,99298.08
2022-09-17T00:13:38.601Z,99300.16
2022-09-17T00:18:44.882Z,99301.80
2022-09-17T00:23:53.215Z,99302.98
2022-09-17T00:29:00.778Z,99299.38
2022-09-17T00:34:08.181Z,99301.12
2022-09-17T00:39:16.378Z,99304.15
2022-09-17T00:44:46.100Z,99306.92
2022-09-17T00:49:56.092Z,99311.30
2022-09-17T00:55:13.149Z,99312.48
2022-09-17T01:00:20.949Z,99320.81
2022-09-17T01:05:36.752Z,99317.50
2022-09-17T01:11:11.149Z,99317.80
2022-09-17T01:16:26.233Z,99314.32
2022-09-17T01:21:43.265Z,99322.11
2022-09-17T01:27:22.504Z,99323.45
2022-09-17T01:32:35.006Z,99320.71
2022-09-17T01:37:54.397Z,99320.27
2022-09-17T01:43:05.989Z,99321.05
2022-09-17T01:48:19.391Z,99323.88
2022-09-17T01:53:31.656Z,99325.35
2022-09-17T01:58:42.174Z,99326.34
2022-09-17T02:03:54.957Z,99323.73
2022-09-17T02:09:06.018Z,99320.84
2022-09-17T02:14:17.405Z,99309.39
2022-09-17T02:19:27.694Z,99309.95
2022-09-17T02:24:42.840Z,99310.02
2022-09-17T02:29:49.472Z,99308.17
2022-09-17T02:34:56.693Z,99310.56
2022-09-17T02:40:03.968Z,99304.85
2022-09-17T02:45:22.016Z,99308.20
2022-09-17T02:50:41.951Z,99310.56
2022-09-17T02:55:55.285Z,99304.79
2022-09-17T03:01:08.807Z,99303.73
2022-09-17T03:06:15.202Z,99302.79
2022-09-17T03:11:21.782Z,99303.17
2022-09-17T03:16:27.920Z,99308.98
2022-09-17T03:21:34.357Z,99306.59
2022-09-17T03:26:40.476Z,99301.48
2022-09-17T03:31:46.947Z,99299.47
2022-09-17T03:36:53.671Z,99300.97
2022-09-17T03:41:59.647Z,99300.81
2022-09-17T03:47:05.920Z,99304.16
2022-09-17T03:52:12.306Z,99304.41
2022-09-17T03:57:18.391Z,99305.08
2022-09-17T04:02:24.736Z,99304.02
2022-09-17T04:07:31.174Z,99303.86
2022-09-17T04:12:37.624Z,99301.04
2022-09-17T04:17:43.914Z,99299.34
2022-09-17T04:22:50.101Z,99298.13
2022-09-17T04:27:55.985Z,99297.80
2022-09-17T04:33:02.109Z,99301.34
2022-09-17T04:38:09.228Z,99307.36
2022-09-17T04:43:15.567Z,99311.09
2022-09-17T04:48:21.650Z,99308.48
2022-09-17T04:53:27.605Z,99299.16
2022-09-17T04:58:34.400Z,99296.39
2022-09-17T05:03:41.010Z,99298.14
2022-09-17T05:08:47.178Z,99301.70
2022-09-17T05:13:53.071Z,99308.15
2022-09-17T05:18:59.432Z,99310.63
2022-09-17T05:24:06.050Z,99318.15
2022-09-17T05:29:12.464Z,99320.56
2022-09-17T05:34:18.389Z,99324.11
2022-09-17T05:39:27.269Z,99315.27
2022-09-17T05:44:33.609Z,99317.38
2022-09-17T05:49:39.590Z,99310.44
2022-09-17T05:54:45.665Z,99301.71
2022-09-17T05:59:52.057Z,99298.02
2022-09-17T06:05:01.727Z,99293.31
2022-09-17T06:10:09.647Z,99293.67
2022-09-17T06:15:15.794Z,99289.19
2022-09-17T06:20:22.677Z,99276.32
2022-09-17T06:25:31.888Z,99272.05
2022-09-17T06:30:38.210Z,99264.83
2022-09-17T06:35:44.282Z,99271.46
2022-09-17T06:40:53.988Z,99262.48
2022-09-17T06:46:02.208Z,99253.77
2022-09-17T06:51:11.254Z,99253.94
2022-09-17T06:56:17.982Z,99249.75
2022-09-17T07:01:24.031Z,99245.55
2022-09-17T07:06:30.176Z,99261.55
2022-09-17T07:11:35.907Z,99271.19
2022-09-17T07:16:41.747Z,99275.78
2022-09-17T07:21:49.886Z,99283.67
2022-09-17T07:26:56.149Z,99293.94
2022-09-17T07:32:02.485Z,99305.48
2022-09-17T07:37:08.994Z,99310.97
2022-09-17T07:42:14.747Z,99319.36
2022-09-17T07:47:20.992Z,99323.19
2022-09-17T07:52:27.740Z,99329.11
2022-09-17T07:57:33.700Z,99334.54
2022-09-17T08:02:40.344Z,99328.65
2022-09-17T08:07:49.782Z,99337.29
2022-09-17T08:12:58.685Z,99335.19
2022-09-17T08:18:05.161Z,99340.14
2022-09-17T08:23:11.291Z,99335.40
2022-09-17T08:28:17.416Z,99340.86
2022-09-17T08:33:23.395Z,99340.15
2022-09-17T08:38:32.546Z,99352.41
2022-09-17T08:43:48.184Z,99363.16
2022-09-17T08:49:02.576Z,99369.95
2022-09-17T08:54:18.890Z,99375.83
2022-09-17T08:59:34.839Z,99370.42
2022-09-17T09:05:02.584Z,99366.46
2022-09-17T09:10:17.750Z,99354.86
2022-09-17T09:15:42.401Z,99348.69
2022-09-17T09:20:53.557Z,99353.94
2022-09-17T09:26:11.806Z,99360.59
2022-09-17T09:31:47.520Z,99359.39
2022-09-17T09:36:59.271Z,99366.63
2022-09-17T09:42:16.214Z,99361.44
2022-09-17T09:47:41.954Z,99352.09
2022-09-17T09:52:59.724Z,99351.15
2022-09-17T09:58:21.898Z,99355.30
2022-09-17T10:03:32.669Z,99358.89
2022-09-17T10:08:40.198Z,99358.37
2022-09-17T10:13:46.542Z,99361.89
2022-09-17T10:19:11.995Z,99370.23
2022-09-17T10:24:25.630Z,99377.77
2022-09-17T10:29:33.628Z,99383.34
2022-09-17T10:34:41.509Z,99378.34
2022-09-17T10:39:48.836Z,99380.08
2022-09-17T10:44:56.110Z,99379.86
2022-09-17T10:55:02.291Z,99393.02
2022-09-17T11:00:16.650Z,99397.10
2022-09-17T11:05:38.532Z,99394.10
2022-09-17T11:10:52.853Z,99405.35
2022-09-17T11:16:14.556Z,99407.59
2022-09-17T11:21:49.171Z,99402.41
2022-09-17T11:27:05.225Z,99383.95
2022-09-17T11:32:35.119Z,99382.68
2022-09-17T11:37:48.975Z,99378.31
2022-09-17T11:42:59.207Z,99376.40
2022-09-17T11:48:10.854Z,99365.63
2022-09-17T11:53:26.258Z,99361.95
2022-09-17T11:58:43.614Z,99364.26
2022-09-17T12:03:56.700Z,99355.31
2022-09-17T12:09:05.164Z,99362.35
2022-09-17T12:14:22.280Z,99364.95
2022-09-17T12:19:34.466Z,99360.90
2022-09-17T12:24:41.548Z,99365.02
2022-09-17T12:30:09.608Z,99362.02
2022-09-17T12:35:53.069Z,99363.92
2022-09-17T12:41:06.375Z,99371.33
2022-09-17T12:46:34.920Z,99378.05
2022-09-17T12:51:55.366Z,99384.17
2022-09-17T12:57:10.597Z,99384.41
2022-09-17T13:02:22.915Z,99372.41
2022-09-17T13:08:09.145Z,99362.98
2022-09-17T13:13:30.726Z,99363.79
2022-09-17T13:18:59.451Z,99370.20
2022-09-17T13:24:19.762Z,99377.35
2022-09-17T13:29:59.467Z,99376.23
2022-09-17T13:35:48.902Z,99372.49
2022-09-17T13:41:25.407Z,99360.30
2022-09-17T13:46:34.611Z,99358.89
2022-09-17T13:51:56.411Z,99355.22
2022-09-17T13:57:22.705Z,99364.05
2022-09-17T14:02:35.312Z,99362.85
2022-09-17T14:07:51.140Z,99360.63
2022-09-17T14:13:00.906Z,99352.23
2022-09-17T14:18:35.877Z,99347.59
2022-09-17T14:23:47.440Z,99344.45
2022-09-17T14:29:03.197Z,99341.94
2022-09-17T14:34:16.924Z,99346.52
2022-09-17T14:39:25.611Z,99347.39
2022-09-17T14:44:34.887Z,99346.98
2022-09-17T14:49:41.027Z,99352.69
2022-09-17T14:54:46.850Z,99348.16
2022-09-17T14:59:56.045Z,99349.05
2022-09-17T15:05:04.172Z,99356.52
2022-09-17T15:10:16.219Z,99357.59
2022-09-17T15:15:24.574Z,99355.33
2022-09-17T15:20:32.191Z,99347.64
2022-09-17T15:25:41.255Z,99339.94
2022-09-17T15:30:51.998Z,99340.36
2022-09-17T15:36:16.051Z,99343.45
2022-09-17T15:41:31.847Z,99343.67
2022-09-17T15:46:38.052Z,99337.80
2022-09-17T15:51:43.978Z,99348.38
2022-09-17T15:56:58.217Z,99360.67
2022-09-17T16:02:05.332Z,99351.05
2022-09-17T16:07:33.950Z,99356.16
2022-09-17T16:12:40.091Z,99371.54
2022-09-17T16:17:47.336Z,99368.64
2022-09-17T16:22:57.319Z,99365.70
2022-09-17T16:28:06.947Z,99369.95
2022-09-17T16:33:14.738Z,99368.33
2022-09-17T16:38:20.606Z,99368.33
2022-09-17T16:43:27.189Z,99363.77
2022-09-17T16:48:33.881Z,99360.44
2022-09-17T16:53:40.570Z,99355.04
2022-09-17T16:58:46.347Z,99351.70
2022-09-17T17:03:55.679Z,99361.82
2022-09-17T17:09:01.953Z,99372.02
2022-09-17T17:14:11.489Z,99370.27
2022-09-17T17:19:19.816Z,99370.66
2022-09-17T17:24:25.627Z,99374.20
2022-09-17T17:29:31.667Z,99380.94
2022-09-17T17:34:37.453Z,99378.60
2022-09-17T17:39:43.254Z,99373.49
2022-09-17T17:44:48.977Z,99373.48
2022-09-17T17:49:54.749Z,99368.06
2022-09-17T17:55:00.677Z,99360.70
2022-09-17T18:00:08.609Z,99364.30
2022-09-17T18:05:21.992Z,99368.19
2022-09-17T18:10:27.800Z,99369.14
2022-09-17T18:15:33.679Z,99369.14
2022-09-17T18:20:39.476Z,99370.43
2022-09-17T18:25:53.925Z,99369.63
2022-09-17T18:31:06.448Z,99378.19
2022-09-17T18:36:13.089Z,99380.20
2022-09-17T18:41:18.727Z,99382.79
2022-09-17T18:46:25.202Z,99378.81
2022-09-17T18:51:31.148Z,99375.52
2022-09-17T18:56:41.379Z,99374.83
2022-09-17T19:01:47.279Z,99370.21
2022-09-17T19:06:58.425Z,99364.70
2022-09-17T19:12:04.746Z,99363.32
2022-09-17T19:17:10.599Z,99364.95
2022-09-17T19:22:18.498Z,99357.98
2022-09-17T19:27:29.682Z,99352.75
2022-09-17T19:32:35.581Z,99346.31
2022-09-17T19:37:41.829Z,99343.35
2022-09-17T19:42:54.030Z,99338.48
2022-09-17T19:48:01.648Z,99335.70
2022-09-17T19:53:07.604Z,99336.17
2022-09-17T19:58:13.675Z,99328.93
2022-09-17T20:03:19.670Z,99319.82
2022-09-17T20:08:25.733Z,99321.70
2022-09-17T20:13:31.656Z,99327.87
2022-09-17T20:18:38.207Z,99324.44
2022-09-17T20:23:44.143Z,99331.20
2022-09-17T20:28:51.587Z,99328.27
2022-09-17T20:34:01.128Z,99332.90
2022-09-17T20:39:14.275Z,99329.59
2022-09-17T20:44:23.789Z,99330.46
2022-09-17T20:49:29.839Z,99333.48
2022-09-17T20:54:35.919Z,99330.58
2022-09-17T20:59:56.676Z,99325.08
2022-09-17T21:05:02.509Z,99320.41
2022-09-17T21:10:10.292Z,99315.09
2022-09-17T21:15:16.276Z,99315.08
2022-09-17T21:20:21.962Z,99322.23
2022-09-17T21:25:28.335Z,99321.16
2022-09-17T21:30:34.400Z,99316.19
2022-09-17T21:35:40.422Z,99316.19
2022-09-17T21:40:55.872Z,99319.25
2022-09-17T21:46:04.999Z,99324.52
2022-09-17T21:51:12.878Z,99324.34
2022-09-17T21:56:20.061Z,99319.45
2022-09-17T22:01:27.900Z,99318.34
2022-09-17T22:06:33.979Z,99324.09
2022-09-17T22:11:39.860Z,99325.33
2022-09-17T22:16:47.468Z,99327.06
2022-09-17T22:21:55.349Z,99319.80
2022-09-17T22:27:02.395Z,99318.69
2022-09-17T22:32:08.214Z,99315.83
2022-09-17T22:37:13.986Z,99313.27
2022-09-17T22:42:19.805Z,99308.83
2022-09-17T22:47:25.582Z,99301.10
2022-09-17T22:52:31.242Z,99296.71
2022-09-17T22:57:37.112Z,99290.45
2022-09-17T23:02:42.915Z,99288.02
2022-09-17T23:07:48.657Z,99290.48
2022-09-17T23:12:55.242Z,99288.35
2022-09-17T23:18:01.217Z,99291.25
2022-09-17T23:23:07.476Z,99294.30
2022-09-17T23:28:13.371Z,99288.85
2022-09-17T23:33:19.133Z,99286.34
2022-09-17T23:38:24.874Z,99277.52
2022-09-17T23:43:30.526Z,99276.48
2022-09-17T23:48:36.772Z,99272.38
2022-09-17T23:53:42.618Z,99271.07
2022-09-17T23:58:49.007Z,99271.73
